Flight Track Log - Related Links

Times and Time Zones

All times are in EDT time to prevent confusion due to time zone crossing. See the KAP5 flight status page for this flight to view local times or setup timezone preferences in your user account.

Time Position Orientation Groundspeed Altitude Reporting Facility
EDT Latitude Longitude Course Direction KTS MPH feet Rate Location/Type
Fri 07:56:48 AM 42.3500 -71.0000 166° South 129 148 800  Level KA90
Fri 07:58:18 AM 42.3000 -70.9833 166° South 138 159 1,700 600 Climbing KA90
Fri 07:59:18 AM 42.2500 -70.9667 166° South 142 163 2,300 591 Climbing KA90
Fri 08:00:30 AM 42.2167 -70.9333 143° Southeast 148 170 3,000 583 Climbing KA90
Fri 08:02:00 AM 42.1666 -70.8872 109° East  Level Estimated
Fri 08:09:00 AM 41.9329 -70.6729 116° Southeast  Level Estimated
Fri 08:10:00 AM 41.9605 -70.6332 47° Northeast  Level FlightAware Approximate
Fri 08:11:00 AM 41.9260 -70.6049 114° Southeast  Level Estimated
Fri 08:12:00 AM 41.9345 -70.5518 78° East  Level FlightAware Approximate
Fri 08:13:00 AM 41.9431 -70.4987 78° East  Level FlightAware Approximate
Fri 08:14:00 AM 41.9516 -70.4456 78° East  Level FlightAware Approximate
Fri 08:15:00 AM 41.9600 -70.3925 78° East  Level FlightAware Approximate
Fri 08:16:00 AM 41.9685 -70.3394 78° East  Level FlightAware Approximate
Fri 08:17:00 AM 41.9769 -70.2862 78° East  Level FlightAware Approximate
Fri 08:18:00 AM 41.9376 -70.2738 180° South  Level Estimated
Fri 08:19:00 AM 41.9019 -70.2483 152° Southeast  Level FlightAware Approximate
Fri 08:20:00 AM 41.8663 -70.2228 152° Southeast  Level FlightAware Approximate
Fri 08:21:00 AM 41.8306 -70.1973 152° Southeast  Level FlightAware Approximate
Fri 08:22:00 AM 41.7949 -70.1719 152° Southeast  Level FlightAware Approximate
Fri 08:23:00 AM 41.7593 -70.1464 152° Southeast  Level FlightAware Approximate
Fri 08:24:00 AM 41.7236 -70.1210 152° Southeast  Level FlightAware Approximate
Fri 08:25:00 AM 41.6879 -70.0957 152° Southeast  Level FlightAware Approximate
Fri 08:26:00 AM 41.6522 -70.0703 152° Southeast  Level FlightAware Approximate
Fri 08:27:00 AM 41.6165 -70.0450 152° Southeast  Level FlightAware Approximate
Fri 08:28:00 AM 41.5796 -70.0374 189° South  Level FlightAware Approximate
Fri 08:29:00 AM 41.5396 -70.0454 189° South  Level FlightAware Approximate
Fri 08:30:00 AM 41.4995 -70.0500 180° South  Level FlightAware Approximate
Fri 08:31:00 AM 41.4591 -70.0500 180° South  Level FlightAware Approximate
Fri 08:32:00 AM 41.4187 -70.0500 180° South  Level FlightAware Approximate
Fri 08:33:00 AM 41.3783 -70.0500 180° South  Level FlightAware Approximate
Fri 08:34:00 AM 41.3379 -70.0500 180° South  Level FlightAware Approximate
Fri 08:35:00 AM 41.2975 -70.0500 180° South  Level FlightAware Approximate
Fri 08:36:00 AM 41.2571 -70.0500 180° South  Level FlightAware Approximate

Login

Don't have an account? Register now (free) for customized features, flight alerts, and more!